createdAt,value
2023-05-13T00:01:17.383Z,13.17
2023-05-13T00:04:22.241Z,13.08
2023-05-13T00:07:27.455Z,13.19
2023-05-13T00:10:31.276Z,13.09
2023-05-13T00:13:35.083Z,13.23
2023-05-13T00:16:39.533Z,13.32
2023-05-13T00:19:43.397Z,13.26
2023-05-13T00:22:48.806Z,13.42
2023-05-13T00:25:52.615Z,13.32
2023-05-13T00:28:56.518Z,13.27
2023-05-13T00:32:00.461Z,13.47
2023-05-13T00:35:04.422Z,13.25
2023-05-13T00:38:09.931Z,13.14
2023-05-13T00:41:14.252Z,13.20
2023-05-13T00:44:18.031Z,13.42
2023-05-13T00:47:23.276Z,13.57
2023-05-13T00:50:27.587Z,13.70
2023-05-13T00:53:34.766Z,13.50
2023-05-13T00:56:39.575Z,13.50
2023-05-13T00:59:43.329Z,13.70
2023-05-13T01:02:54.583Z,13.46
2023-05-13T01:06:06.161Z,13.49
2023-05-13T01:09:20.061Z,13.37
2023-05-13T01:12:31.229Z,13.36
2023-05-13T01:15:40.576Z,13.47
2023-05-13T01:18:47.736Z,13.36
2023-05-13T01:21:55.457Z,13.60
2023-05-13T01:25:27.952Z,13.57
2023-05-13T01:28:32.069Z,13.45
2023-05-13T01:31:40.233Z,13.48
2023-05-13T01:34:45.837Z,13.48
2023-05-13T01:37:52.953Z,13.75
2023-05-13T01:40:58.415Z,13.46
2023-05-13T01:44:02.339Z,13.60
2023-05-13T01:47:06.470Z,13.70
2023-05-13T01:50:11.202Z,13.71
2023-05-13T01:53:16.410Z,13.70
2023-05-13T01:56:20.472Z,13.73
2023-05-13T01:59:25.501Z,13.80
2023-05-13T02:02:29.190Z,13.89
2023-05-13T02:05:33.498Z,13.91
2023-05-13T02:08:43.363Z,13.93
2023-05-13T02:11:47.697Z,13.44
2023-05-13T02:14:52.555Z,13.83
2023-05-13T02:17:56.422Z,13.87
2023-05-13T02:21:00.256Z,13.59
2023-05-13T02:24:06.811Z,13.68
2023-05-13T02:27:13.011Z,13.73
2023-05-13T02:30:17.043Z,13.89
2023-05-13T02:33:21.587Z,13.51
2023-05-13T02:36:25.575Z,13.42
2023-05-13T02:39:31.038Z,13.56
2023-05-13T02:42:35.979Z,13.81
2023-05-13T02:45:41.992Z,13.72
2023-05-13T02:48:47.600Z,13.65
2023-05-13T02:51:51.516Z,13.60
2023-05-13T02:55:02.262Z,13.73
2023-05-13T02:58:06.142Z,13.85
2023-05-13T03:01:10.625Z,13.93
2023-05-13T03:04:14.651Z,13.86
2023-05-13T03:07:18.599Z,13.74
2023-05-13T03:10:24.076Z,13.84
2023-05-13T03:13:27.994Z,13.67
2023-05-13T03:16:33.172Z,13.68
2023-05-13T03:19:38.662Z,13.87
2023-05-13T03:22:42.639Z,13.77
2023-05-13T03:25:50.028Z,13.97
2023-05-13T03:28:54.069Z,14.03
2023-05-13T03:31:58.496Z,13.93
2023-05-13T03:35:03.063Z,13.93
2023-05-13T03:38:08.329Z,13.93
2023-05-13T03:41:17.967Z,14.01
2023-05-13T03:44:24.076Z,13.82
2023-05-13T03:47:28.274Z,14.11
2023-05-13T03:50:37.180Z,14.47
2023-05-13T03:53:41.376Z,14.69
2023-05-13T03:56:46.770Z,14.46
2023-05-13T03:59:50.562Z,14.76
2023-05-13T04:02:55.985Z,14.99
2023-05-13T04:05:59.915Z,14.86
2023-05-13T04:09:04.944Z,14.88
2023-05-13T04:12:10.158Z,14.68
2023-05-13T04:15:13.903Z,14.92
2023-05-13T04:18:17.748Z,15.10
2023-05-13T04:21:21.489Z,14.69
2023-05-13T04:24:25.806Z,15.04
2023-05-13T04:27:31.055Z,15.07
2023-05-13T04:30:49.613Z,15.41
2023-05-13T04:33:53.449Z,15.38
2023-05-13T04:36:57.262Z,15.45
2023-05-13T04:40:01.964Z,15.65
2023-05-13T04:43:07.467Z,16.09
2023-05-13T04:46:18.677Z,15.78
2023-05-13T04:49:22.649Z,15.08
2023-05-13T04:52:26.614Z,15.20
2023-05-13T04:55:30.425Z,15.36
2023-05-13T04:58:35.853Z,15.77
2023-05-13T05:01:39.873Z,15.88
2023-05-13T05:04:43.875Z,15.87
2023-05-13T05:07:50.819Z,15.57
2023-05-13T05:10:56.500Z,16.19
2023-05-13T05:14:01.995Z,16.66
2023-05-13T05:17:06.811Z,16.12
2023-05-13T05:20:12.005Z,16.25
2023-05-13T05:23:16.277Z,15.77
2023-05-13T05:26:21.039Z,16.04
2023-05-13T05:29:26.778Z,16.48
2023-05-13T05:32:31.521Z,16.97
2023-05-13T05:35:37.442Z,16.84
2023-05-13T05:38:44.089Z,17.35
2023-05-13T05:41:48.607Z,17.82
2023-05-13T05:44:54.294Z,17.77
2023-05-13T05:47:58.459Z,17.50
2023-05-13T05:51:03.562Z,17.78
2023-05-13T05:54:10.549Z,17.69
2023-05-13T05:57:15.599Z,17.93
2023-05-13T06:00:22.051Z,17.99
2023-05-13T06:03:26.261Z,17.59
2023-05-13T06:06:30.515Z,17.78
2023-05-13T06:09:34.503Z,18.09
2023-05-13T06:12:38.589Z,17.77
2023-05-13T06:15:43.955Z,18.02
2023-05-13T06:18:48.974Z,18.51
2023-05-13T06:21:53.013Z,18.69
2023-05-13T06:24:56.985Z,18.50
2023-05-13T06:28:02.863Z,18.57
2023-05-13T06:31:08.603Z,19.01
2023-05-13T06:34:16.923Z,19.84
2023-05-13T06:37:21.694Z,19.82
2023-05-13T06:40:25.836Z,20.08
2023-05-13T06:43:30.555Z,20.17
2023-05-13T06:46:37.782Z,19.91
2023-05-13T06:49:41.672Z,19.77
2023-05-13T06:52:45.872Z,20.06
2023-05-13T06:55:49.851Z,19.88
2023-05-13T06:58:54.095Z,19.95
2023-05-13T07:01:59.657Z,19.58
2023-05-13T07:05:03.592Z,19.16
2023-05-13T07:08:08.880Z,18.91
2023-05-13T07:11:12.830Z,18.22
2023-05-13T07:14:17.115Z,18.36
2023-05-13T07:17:22.790Z,18.57
2023-05-13T07:20:27.458Z,18.95
2023-05-13T07:23:31.852Z,18.64
2023-05-13T07:26:35.786Z,18.09
2023-05-13T07:29:39.650Z,19.36
2023-05-13T07:32:45.108Z,20.08
2023-05-13T07:35:49.157Z,20.15
2023-05-13T07:38:53.880Z,19.50
2023-05-13T07:41:57.938Z,20.47
2023-05-13T07:45:01.891Z,20.28
2023-05-13T07:48:07.723Z,20.46
2023-05-13T07:51:11.733Z,20.61
2023-05-13T07:54:15.734Z,21.01
2023-05-13T07:57:19.703Z,20.93
2023-05-13T08:00:23.733Z,21.23
2023-05-13T08:03:29.284Z,20.91
2023-05-13T08:06:33.334Z,20.97
2023-05-13T08:09:37.235Z,20.94
2023-05-13T08:12:41.596Z,20.80
2023-05-13T08:15:46.184Z,20.84
2023-05-13T08:18:55.523Z,20.63
2023-05-13T08:21:59.523Z,21.09
2023-05-13T08:25:04.902Z,21.18
2023-05-13T08:28:08.846Z,21.55
2023-05-13T08:31:13.931Z,21.83
2023-05-13T08:34:19.330Z,22.30
2023-05-13T08:37:23.326Z,21.61
2023-05-13T08:40:27.184Z,21.27
2023-05-13T08:43:32.756Z,20.64
2023-05-13T08:46:39.553Z,21.03
2023-05-13T08:49:45.330Z,21.52
2023-05-13T08:52:49.370Z,22.07
2023-05-13T08:55:53.748Z,21.80
2023-05-13T08:58:58.066Z,22.01
2023-05-13T09:02:04.110Z,22.43
2023-05-13T09:05:11.235Z,22.93
2023-05-13T09:08:15.599Z,22.69
2023-05-13T09:11:19.502Z,22.42
2023-05-13T09:14:23.525Z,21.57
2023-05-13T09:17:27.571Z,22.27
2023-05-13T09:20:33.978Z,22.69
2023-05-13T09:23:39.744Z,22.45
2023-05-13T09:26:44.065Z,22.53
2023-05-13T09:29:50.017Z,23.17
2023-05-13T09:33:11.621Z,23.70
2023-05-13T09:36:18.764Z,23.85
2023-05-13T09:39:22.670Z,23.26
2023-05-13T09:42:26.665Z,23.37
2023-05-13T09:45:30.493Z,23.13
2023-05-13T09:48:38.331Z,23.37
2023-05-13T09:51:45.518Z,22.86
2023-05-13T09:54:49.526Z,23.06
2023-05-13T09:57:55.300Z,22.48
2023-05-13T10:01:00.036Z,23.15
2023-05-13T10:04:06.491Z,23.31
2023-05-13T10:07:13.519Z,23.23
2023-05-13T10:10:17.534Z,22.91
2023-05-13T10:13:26.043Z,23.47
2023-05-13T10:16:30.858Z,23.61
2023-05-13T10:19:35.277Z,23.17
2023-05-13T10:22:41.774Z,22.82
2023-05-13T10:25:46.447Z,23.47
2023-05-13T10:28:50.774Z,23.36
2023-05-13T10:31:55.722Z,23.44
2023-05-13T10:35:06.912Z,23.21
2023-05-13T10:38:18.403Z,23.20
2023-05-13T10:41:41.031Z,23.09
2023-05-13T10:44:45.032Z,23.05
2023-05-13T10:47:52.153Z,22.86
2023-05-13T10:50:57.205Z,22.88
2023-05-13T10:54:02.609Z,23.15
2023-05-13T10:57:06.890Z,24.07
2023-05-13T11:00:19.365Z,23.76
2023-05-13T11:03:31.474Z,24.05
2023-05-13T11:06:36.997Z,24.36
2023-05-13T11:09:42.358Z,24.17
2023-05-13T11:13:10.060Z,24.04
2023-05-13T11:16:15.594Z,23.74
2023-05-13T11:19:25.047Z,23.78
2023-05-13T11:22:32.310Z,23.12
2023-05-13T11:25:38.364Z,23.85
2023-05-13T11:29:00.048Z,24.29
2023-05-13T11:32:05.731Z,24.18
2023-05-13T11:35:10.142Z,23.70
2023-05-13T11:38:25.427Z,24.55
2023-05-13T11:41:33.609Z,24.70
2023-05-13T11:44:38.546Z,24.65
2023-05-13T11:47:42.408Z,24.49
2023-05-13T11:50:46.364Z,24.75
2023-05-13T11:53:50.342Z,23.64
2023-05-13T11:56:56.161Z,24.01
2023-05-13T12:00:01.543Z,24.06
2023-05-13T12:03:12.239Z,23.77
2023-05-13T12:06:17.238Z,23.86
2023-05-13T12:09:24.197Z,24.39
2023-05-13T12:12:31.346Z,24.07
2023-05-13T12:15:35.413Z,24.13
2023-05-13T12:18:39.556Z,23.97
2023-05-13T12:21:43.431Z,23.87
2023-05-13T12:24:47.308Z,23.98
2023-05-13T12:27:55.169Z,24.36
2023-05-13T12:31:00.850Z,24.55
2023-05-13T12:34:06.667Z,24.50
2023-05-13T12:37:14.319Z,24.30
2023-05-13T12:40:18.405Z,24.21
2023-05-13T12:43:24.527Z,24.43
2023-05-13T12:46:29.019Z,24.54
2023-05-13T12:49:32.974Z,24.25
2023-05-13T12:52:36.954Z,23.86
2023-05-13T12:55:40.959Z,23.94
2023-05-13T12:58:46.365Z,24.13
2023-05-13T13:01:51.492Z,24.06
2023-05-13T13:04:55.308Z,23.80
2023-05-13T13:07:59.213Z,22.99
2023-05-13T13:11:03.080Z,22.86
2023-05-13T13:14:08.709Z,22.60
2023-05-13T13:17:12.738Z,22.77
2023-05-13T13:20:16.620Z,22.55
2023-05-13T13:23:20.669Z,22.53
2023-05-13T13:26:24.572Z,22.79
2023-05-13T13:29:29.990Z,23.11
2023-05-13T13:32:35.584Z,22.87
2023-05-13T13:35:39.610Z,23.24
2023-05-13T13:38:43.452Z,23.07
2023-05-13T13:41:47.540Z,23.12
2023-05-13T13:44:52.936Z,23.30
2023-05-13T13:47:56.833Z,23.07
2023-05-13T13:51:00.879Z,23.01
2023-05-13T13:54:08.396Z,23.06
2023-05-13T13:57:12.355Z,23.27
2023-05-13T14:00:18.461Z,23.25
2023-05-13T14:03:22.478Z,23.55
2023-05-13T14:06:26.599Z,23.63
2023-05-13T14:09:31.746Z,23.96
2023-05-13T14:12:36.088Z,24.06
2023-05-13T14:15:41.592Z,24.59
2023-05-13T14:18:45.560Z,24.04
2023-05-13T14:21:49.626Z,23.85
2023-05-13T14:24:53.960Z,23.65
2023-05-13T14:27:58.084Z,24.20
2023-05-13T14:31:03.487Z,24.21
2023-05-13T14:34:08.154Z,23.93
2023-05-13T14:37:12.130Z,23.77
2023-05-13T14:40:16.081Z,23.56
2023-05-13T14:43:19.998Z,23.10
2023-05-13T14:46:25.418Z,23.77
2023-05-13T14:49:29.318Z,23.81
2023-05-13T14:52:33.186Z,23.80
2023-05-13T14:55:37.145Z,23.71
2023-05-13T14:58:41.003Z,23.93
2023-05-13T15:01:46.591Z,23.70
2023-05-13T15:04:50.537Z,23.54
2023-05-13T15:07:54.455Z,22.98
2023-05-13T15:10:58.379Z,22.81
2023-05-13T15:14:03.468Z,22.64
2023-05-13T15:17:12.125Z,22.68
2023-05-13T15:20:16.149Z,22.88
2023-05-13T15:23:20.112Z,22.82
2023-05-13T15:26:23.908Z,23.03
2023-05-13T15:29:28.888Z,23.13
2023-05-13T15:32:34.636Z,23.53
2023-05-13T15:35:38.586Z,23.81
2023-05-13T15:38:42.456Z,23.48
2023-05-13T15:41:46.720Z,23.77
2023-05-13T15:44:50.715Z,23.59
2023-05-13T15:47:56.196Z,23.24
2023-05-13T15:51:00.237Z,23.49
2023-05-13T15:54:04.171Z,23.47
2023-05-13T15:57:09.338Z,23.46
2023-05-13T16:00:14.687Z,23.14
2023-05-13T16:03:20.267Z,23.08
2023-05-13T16:06:24.324Z,22.66
2023-05-13T16:09:28.235Z,22.85
2023-05-13T16:12:32.782Z,22.72
2023-05-13T16:15:36.669Z,22.55
2023-05-13T16:18:43.278Z,22.53
2023-05-13T16:21:47.469Z,22.46
2023-05-13T16:24:51.436Z,22.47
2023-05-13T16:27:56.796Z,22.28
2023-05-13T16:31:00.959Z,22.06
2023-05-13T16:34:06.418Z,21.94
2023-05-13T16:37:10.279Z,21.87
2023-05-13T16:40:15.290Z,22.06
2023-05-13T16:43:19.168Z,21.88
2023-05-13T16:46:23.142Z,21.70
2023-05-13T16:49:28.596Z,21.73
2023-05-13T16:52:34.353Z,21.59
2023-05-13T16:55:38.313Z,21.37
2023-05-13T16:58:42.200Z,21.17
2023-05-13T17:01:46.174Z,21.11
2023-05-13T17:04:51.745Z,20.99
2023-05-13T17:07:55.720Z,20.92
2023-05-13T17:10:59.591Z,20.88
2023-05-13T17:14:04.037Z,20.72
2023-05-13T17:17:07.954Z,20.75
2023-05-13T17:20:14.540Z,20.66
2023-05-13T17:23:18.464Z,20.55
2023-05-13T17:26:22.658Z,20.41
2023-05-13T17:29:26.678Z,20.53
2023-05-13T17:32:32.022Z,20.35
2023-05-13T17:35:37.436Z,20.38
2023-05-13T17:38:41.322Z,20.42
2023-05-13T17:41:45.311Z,20.37
2023-05-13T17:44:49.243Z,20.28
2023-05-13T17:47:53.303Z,20.34
2023-05-13T17:50:59.297Z,20.33
2023-05-13T17:54:03.285Z,20.23
2023-05-13T17:57:07.479Z,20.09
2023-05-13T18:00:12.500Z,20.13
2023-05-13T18:03:16.616Z,20.14
2023-05-13T18:06:22.136Z,19.97
2023-05-13T18:09:26.056Z,20.07
2023-05-13T18:12:31.066Z,20.11
2023-05-13T18:15:35.160Z,19.99
2023-05-13T18:18:39.049Z,19.98
2023-05-13T18:21:45.839Z,20.06
2023-05-13T18:24:49.792Z,19.87
2023-05-13T18:27:53.847Z,19.88
2023-05-13T18:30:57.820Z,19.80
2023-05-13T18:34:01.826Z,19.89
2023-05-13T18:37:08.027Z,19.55
2023-05-13T18:40:12.753Z,19.41
2023-05-13T18:43:16.697Z,19.39
2023-05-13T18:46:21.385Z,19.36
2023-05-13T18:49:28.490Z,19.27
2023-05-13T18:52:33.932Z,19.15
2023-05-13T18:55:38.166Z,19.16
2023-05-13T18:58:42.085Z,19.11
2023-05-13T19:01:46.086Z,18.97
2023-05-13T19:04:49.938Z,19.02
2023-05-13T19:07:55.496Z,19.32
2023-05-13T19:10:59.378Z,19.32
2023-05-13T19:14:03.333Z,19.26
2023-05-13T19:17:07.566Z,18.94
2023-05-13T19:20:12.730Z,19.27
2023-05-13T19:23:18.213Z,19.20
2023-05-13T19:26:22.627Z,19.20
2023-05-13T19:29:27.126Z,19.01
2023-05-13T19:32:31.262Z,18.98
2023-05-13T19:35:35.508Z,18.78
2023-05-13T19:38:40.982Z,18.38
2023-05-13T19:41:44.902Z,18.47
2023-05-13T19:44:48.965Z,18.46
2023-05-13T19:47:52.983Z,18.30
2023-05-13T19:50:58.259Z,18.15
2023-05-13T19:54:03.622Z,18.21
2023-05-13T19:57:08.033Z,18.15
2023-05-13T20:00:13.913Z,17.89
2023-05-13T20:03:18.103Z,17.67
2023-05-13T20:06:22.156Z,17.97
2023-05-13T20:09:27.589Z,17.83
2023-05-13T20:12:31.512Z,17.56
2023-05-13T20:15:35.530Z,17.40
2023-05-13T20:18:39.721Z,17.59
2023-05-13T20:21:43.674Z,17.37
2023-05-13T20:24:49.568Z,17.30
2023-05-13T20:27:53.454Z,17.31
2023-05-13T20:30:57.467Z,17.28
2023-05-13T20:34:01.372Z,17.36
2023-05-13T20:37:05.636Z,17.37
2023-05-13T20:40:11.887Z,17.44
2023-05-13T20:43:17.055Z,17.42
2023-05-13T20:46:21.082Z,17.25
2023-05-13T20:49:24.973Z,17.57
2023-05-13T20:52:28.875Z,17.53
2023-05-13T20:55:34.398Z,17.74
2023-05-13T20:58:38.322Z,17.29
2023-05-13T21:01:47.660Z,17.20
2023-05-13T21:04:51.716Z,16.91
2023-05-13T21:07:55.846Z,17.04
2023-05-13T21:11:01.243Z,17.23
2023-05-13T21:14:05.298Z,17.40
2023-05-13T21:17:09.263Z,17.51
2023-05-13T21:20:14.342Z,17.29
2023-05-13T21:23:20.369Z,17.27
2023-05-13T21:26:26.331Z,17.24
2023-05-13T21:29:30.929Z,17.21
2023-05-13T21:32:35.180Z,17.11
2023-05-13T21:35:39.130Z,17.12
2023-05-13T21:38:43.041Z,17.14
2023-05-13T21:41:48.442Z,17.17
2023-05-13T21:44:52.335Z,17.28
2023-05-13T21:47:56.449Z,17.20
2023-05-13T21:51:00.422Z,17.08
2023-05-13T21:54:05.280Z,16.89
2023-05-13T21:57:11.495Z,16.71
2023-05-13T22:00:19.069Z,16.72
2023-05-13T22:03:22.899Z,16.66
2023-05-13T22:06:26.898Z,16.76
2023-05-13T22:09:30.777Z,16.58
2023-05-13T22:12:36.187Z,16.62
2023-05-13T22:15:40.056Z,16.86
2023-05-13T22:18:44.433Z,16.78
2023-05-13T22:21:48.596Z,16.85
2023-05-13T22:24:52.547Z,16.33
2023-05-13T22:27:57.903Z,16.20
2023-05-13T22:31:01.963Z,16.44
2023-05-13T22:34:05.993Z,16.52
2023-05-13T22:37:09.885Z,16.60
2023-05-13T22:40:14.794Z,16.38
2023-05-13T22:43:20.240Z,16.45
2023-05-13T22:46:24.161Z,16.20
2023-05-13T22:49:28.095Z,16.27
2023-05-13T22:52:32.092Z,16.05
2023-05-13T22:55:35.994Z,15.76
2023-05-13T22:58:41.515Z,15.70
2023-05-13T23:01:45.569Z,16.11
2023-05-13T23:04:49.461Z,15.65
2023-05-13T23:07:53.352Z,15.72
2023-05-13T23:10:57.709Z,15.70
2023-05-13T23:14:03.103Z,15.75
2023-05-13T23:17:07.072Z,15.73
2023-05-13T23:20:12.519Z,16.04
2023-05-13T23:23:16.316Z,16.09
2023-05-13T23:26:20.264Z,15.82
2023-05-13T23:29:27.895Z,16.11
2023-05-13T23:32:31.830Z,16.12
2023-05-13T23:35:36.101Z,16.08
2023-05-13T23:38:39.965Z,16.26
2023-05-13T23:41:43.897Z,16.23
2023-05-13T23:44:49.293Z,16.10
2023-05-13T23:47:53.250Z,16.19
2023-05-13T23:50:57.235Z,16.40
2023-05-13T23:54:01.353Z,16.22
2023-05-13T23:57:05.388Z,15.98
